Blue Hill Meteorological Observatory

42° 12' 44"N, 71° 06' 53"W, Elevation 635 ft.
Eastern Time

Hourly observations for the last 72 hours

Date Time Temperature (°F) Humi-
dity

(%)
Wind
(mph)
Pressure Rain (in) Sun
(W/m2)
ET
(in)
Air Dew 6 Hour 1 Hr 3 Hr 6 Hr Day
Alt
(in)
Sea
Level

(mb)
Max Min
22 21:00 75.0 66.2 74 W 10 G 14 29.87 1011.4 0.00 0 0.167
22 20:00 76.6 68.1 75 W 11 G 17 29.86 1011.3 0.00 0 0.164
22 19:00 78.9 69.9 88.1 78.9 74 WSW 7 G 12 29.84 1010.6 0.00 0 0.162
22 18:00 80.6 68.6 67 W 8 G 12 29.84 1010.6 0.00 35 0.156
22 17:00 84.1 68.7 60 W 11 G 17 29.83 1010.2 0.00 202 0.145
22 16:00 87.1 71.1 59 W 12 G 20 29.82 1010.0 0.00 380 0.127
22 15:00 88.0 72.4 60 W 15 G 19 29.83 1010.1 0.00 545 0.106
22 14:00 86.6 73.0 64 W 11 G 24 29.83 1010.1 0.00 232 0.085
22 13:00 86.1 75.6 86.8 71.7 71 W 10 G 18 29.84 1010.5 0.00 809 0.061
22 12:00 85.3 76.1 74 WSW 13 G 17 29.83 1010.2 0.00 877 0.042
22 11:00 82.8 76.4 81 SSW 7 G 13 29.85 1010.8 0.00 921 0.026
22 10:00 78.9 75.7 90 SSW 6 G 11 29.87 1011.4 0.00 429 0.015
22 09:00 75.4 74.8 98 SSW 5 G 8 29.86 1011.1 0.00 290 0.008
22 08:00 73.8 73.2 98 S 6 G 10 29.86 1011.2 0.00 299 0.003
22 07:00 71.7 71.1 71.7 67.9 98 SSW 7 G 12 29.87 1011.4 0.00 142 0.001
22 06:00 70.5 69.9 98 SW 8 G 11 29.85 1011.0 0.00 58 0.000
22 05:00 69.2 68.3 97 WSW 6 G 11 29.84 1010.7 0.00 0 0.000
22 04:00 69.3 68.4 97 SSW 8 G 10 29.84 1010.4 0.00 0 0.000
22 03:00 69.8 68.9 97 SW 10 G 14 29.83 1010.0 0.00 0 0.000
22 02:00 69.2 68.0 96 SW 12 G 17 29.83 1010.3 0.00 0 0.000
22 01:00 68.0 66.8 73.9 67.9 96 SW 13 G 17 29.85 1010.8 0.01 0.00 0 0.000
22 00:00 68.2 67.0 96 SW 13 G 17 29.86 1011.2 0.09 0 0.116
21 23:00 68.7 67.5 96 WSW 13 G 19 29.85 1011.0 0.09 0 0.116
21 22:00 69.6 68.4 96 WSW 12 G 20 29.85 1010.8 0.01 0.01 0.09 0 0.115
21 21:00 72.4 70.6 94 SW 17 G 24 29.84 1010.4 0.08 0 0.114
21 20:00 73.8 72.6 96 SSW 16 G 24 29.85 1010.7 0.08 0 0.113
21 19:00 73.6 72.4 82.8 73.4 96 S 13 G 22 29.86 1011.1 0.01 0.08 0.08 0 0.112
21 18:00 73.4 71.9 95 S 15 G 23 29.85 1010.7 0.08 5 0.110
21 17:00 73.8 72.3 95 S 16 G 23 29.86 1011.2 0.01 0.08 178 0.107
21 16:00 74.3 72.5 94 S 18 G 24 29.87 1011.5 0.07 0.07 0.07 62 0.105
21 15:00 77.3 72.8 86 S 16 G 23 29.89 1012.3 0.00 16 0.102
21 14:00 78.9 72.6 81 S 11 G 20 29.90 1012.4 0.00 146 0.095
21 13:00 82.8 73.7 84.9 74.0 74 SSW 11 G 21 29.92 1013.1 0.00 230 0.082
21 12:00 84.5 74.5 72 S 11 G 19 29.94 1014.0 0.00 350 0.065
21 11:00 82.6 73.9 75 S 12 G 24 29.95 1014.3 0.00 738 0.047
21 10:00 78.6 73.0 83 S 9 G 16 29.97 1015.0 0.00 376 0.037
21 09:00 75.8 71.7 87 S 11 G 16 30.00 1015.8 0.00 265 0.026
21 08:00 77.0 72.8 87 S 6 G 15 30.01 1016.4 0.00 366 0.017
21 07:00 74.0 70.6 74.0 67.3 89 SSW 11 G 15 30.02 1016.6 0.00 355 0.011
21 06:00 69.0 65.9 90 S 11 G 17 30.01 1016.4 0.00 88 0.009
21 05:00 67.4 63.1 86 S 10 G 15 30.02 1016.7 0.00 7 0.008
21 04:00 68.5 63.5 84 S 8 G 13 30.02 1016.7 0.00 0 0.006
21 03:00 68.5 63.8 85 SSW 10 G 14 30.02 1016.8 0.00 0 0.004
21 02:00 68.9 63.9 84 SSW 10 G 13 30.04 1017.3 0.00 0 0.002
21 01:00 70.1 63.3 76.8 69.4 79 SW 10 G 14 30.05 1017.7 0.00 0 0.000
21 00:00 70.4 62.9 77 SSW 9 G 12 30.05 1017.6 0.00 0 0.226
20 23:00 70.6 60.8 71 SSW 9 G 12 30.06 1017.8 0.00 0 0.223
20 22:00 71.6 62.1 72 S 7 G 12 30.06 1018.1 0.00 0 0.221
20 21:00 72.5 63.7 74 SSE 5 G 9 30.06 1017.9 0.00 0 0.218
20 20:00 75.6 59.3 57 SW 6 G 10 30.05 1017.7 0.00 0 0.214
20 19:00 76.8 59.9 87.3 76.8 56 WSW 7 G 10 30.04 1017.3 0.00 0 0.210
20 18:00 81.3 59.8 48 SW 6 G 12 30.04 1017.4 0.00 37 0.202
20 17:00 85.1 61.4 45 WSW 8 G 13 30.05 1017.7 0.00 221 0.189
20 16:00 86.2 58.4 39 W 9 G 14 30.06 1017.9 0.00 367 0.172
20 15:00 87.2 57.0 36 SW 5 G 12 30.07 1018.2 0.00 580 0.151
20 14:00 86.7 59.5 40 WNW 5 G 10 30.07 1018.3 0.00 726 0.128
20 13:00 85.4 62.9 85.5 69.5 47 W 3 G 8 30.06 1018.0 0.00 798 0.104
20 12:00 82.9 61.2 48 WSW 2 G 8 30.07 1018.4 0.00 847 0.080
20 11:00 81.7 64.5 56 W 8 G 10 30.08 1018.7 0.00 826 0.058
20 10:00 79.5 65.8 63 W 5 G 8 30.09 1018.9 0.00 756 0.038
20 09:00 77.0 65.2 67 NNW 4 G 13 30.09 1019.2 0.00 640 0.022
20 08:00 73.0 65.7 78 WNW 8 G 12 30.08 1018.7 0.00 482 0.011
20 07:00 69.5 64.8 69.5 65.8 85 WNW 9 G 12 30.08 1018.6 0.00 302 0.005
20 06:00 66.1 63.1 90 WNW 9 G 13 30.07 1018.2 0.00 76 0.004
20 05:00 66.9 64.8 93 W 10 G 12 30.05 1017.7 0.00 5 0.003
20 04:00 67.6 65.8 94 W 9 G 12 30.03 1016.9 0.00 0 0.002
20 03:00 67.8 66.6 96 W 10 G 13 30.01 1016.5 0.00 0 0.002
20 02:00 68.9 67.4 95 W 10 G 14 30.00 1016.1 0.00 0 0.001
20 01:00 69.5 68.0 73.6 69.0 95 W 10 G 14 30.00 1015.8 0.00 0 0.000
20 00:00 69.1 67.6 95 W 12 G 16 29.98 1015.2 0.02 0 0.186
19 23:00 69.7 67.9 94 W 12 G 15 29.97 1015.1 0.02 0 0.185
19 22:00 70.6 68.5 93 W 12 G 18 29.97 1015.1 0.02 0 0.184

Data generated by WxSolution Version 1.9.1.5, Build 2018.05.20.